Station: Ernabella/Pukatja

  Atmospheric Gas Attenuation - ITU Rec 676-11   --------------- db/100km ---------------
Date Time Temp RH % AH g/m3 Dew Point Wind Direction Speed kph Gust kph Barometer mB Rainfall Since 9am 24GHz 47GHz 76GHz 122GHz 134GHz 241GHz
17 01:50 5.4 55 3.84 -2.9 15 15 1021 0 9.7 20.9 25.1 64.9 45.9 153.0
17 01:40 4.5 54 3.55 -4 15 15 1021 0 9.1 20.7 24.3 62.8 42.8 142.1
17 01:30 5.6 51 3.61 -3.7 13 15 1020.5 0 9.2 20.5 24.2 62.5 43.0 142.7
17 01:20 6.2 50 3.68 -3.4 13 13 1021.1 0 9.4 20.5 24.3 62.7 43.5 144.7
17 01:10 6.1 49 3.58 -3.8 13 13 1021.2 0 9.2 20.4 23.9 61.9 42.4 140.7
17 01:00 6.4 48 3.58 -3.8 13 15 1020.7 0 9.2 20.3 23.8 61.6 42.2 140.1
17 00:50 6.8 46 3.52 -4 13 15 1021.3 0 9.0 20.2 23.5 60.7 41.3 137.0
17 00:40 6.9 46 3.54 -3.9 13 15 1021.3 0 9.1 20.2 23.6 60.9 41.5 137.6
17 00:30 6.9 45 3.47 -4.2 13 15 1020.8 0 8.9 20.0 23.3 60.2 40.6 134.6
17 00:20 7.2 44 3.46 -4.2 15 15 1021.3 0 8.9 20.0 23.2 59.9 40.4 133.8
17 00:10 7.7 43 3.49 -4.1 15 15 1021.6 0 8.9 19.9 23.2 59.8 40.5 134.3
17 00:00 7.8 42 3.43 -4.3 13 15 1021.1 0 8.8 19.8 22.9 59.1 39.7 131.6
16 23:50 8 42 3.47 -4.1 13 15 1021.7 0 8.9 19.8 23.0 59.4 40.1 133.0
16 23:40 8 42 3.47 -4.1 13 15 1021.7 0 8.9 19.8 23.0 59.4 40.1 133.0
16 23:30 7.9 42 3.45 -4.2 15 15 1021.3 0 8.8 19.8 23.0 59.3 39.9 132.3
16 23:20 7.8 41 3.35 -4.6 13 15 1021.8 0 8.6 19.7 22.7 58.4 38.8 128.4
16 23:10 8.1 40 3.33 -4.7 13 15 1021.8 0 8.6 19.6 22.5 58.0 38.4 127.1
16 23:00 8.6 39 3.35 -4.6 17 17 1021.3 0 8.6 19.5 22.4 57.8 38.4 127.1
16 22:50 8.5 39 3.33 -4.6 17 17 1021.9 0 8.6 19.5 22.4 57.8 38.2 126.5
16 22:40 8.7 39 3.37 -4.5 17 17 1022 0 8.7 19.6 22.5 58.0 38.6 127.8
16 22:30 8.9 39 3.42 -4.3 17 17 1021.6 0 8.8 19.6 22.6 58.3 39.1 129.5
16 22:20 8.4 40 3.39 -4.4 15 17 1022.1 0 8.7 19.7 22.7 58.4 39.0 129.1
16 22:10 8.4 39 3.31 -4.7 15 17 1022.1 0 8.5 19.5 22.4 57.7 38.1 125.9
16 22:00 8.2 39 3.27 -4.9 13 15 1021.7 0 8.5 19.5 22.3 57.4 37.7 124.5
16 21:50 8.3 39 3.29 -4.8 13 15 1022.2 0 8.5 19.5 22.3 57.5 37.9 125.2
16 21:40 8.5 38 3.25 -5 13 13 1022.1 0 8.4 19.4 22.1 57.0 37.3 123.3
16 21:30 8.6 38 3.27 -4.9 11 13 1021.6 0 8.4 19.4 22.2 57.1 37.5 123.9
16 21:20 8.6 38 3.27 -4.9 11 11 1022.1 0 8.4 19.4 22.2 57.1 37.5 123.9
16 21:10 9.5 37 3.37 -4.4 15 15 1022 0 8.6 19.4 22.3 57.4 38.2 126.6
16 21:00 9.4 36 3.26 -4.9 13 15 1021.5 0 8.4 19.2 21.9 56.4 37.0 122.3
16 20:50 9.7 36 3.32 -4.6 13 13 1021.9 0 8.5 19.3 22.1 56.8 37.6 124.3
16 20:40 9.6 36 3.3 -4.7 13 13 1021.8 0 8.5 19.3 22.0 56.7 37.4 123.6
16 20:30 9.7 35 3.23 -5 13 15 1021.3 0 8.3 19.1 21.7 56.0 36.5 120.6
16 20:20 10.4 35 3.37 -4.4 15 15 1021.7 0 8.6 19.2 22.0 56.8 37.8 125.2
16 20:10 10.2 35 3.33 -4.6 15 17 1021.6 0 8.5 19.2 21.9 56.5 37.4 123.9
16 20:00 10 35 3.29 -4.7 15 15 1020.9 0 8.4 19.1 21.8 56.3 37.1 122.5
16 19:50 10 34 3.2 -5.1 13 15 1021.3 0 8.3 19.0 21.5 55.5 36.1 119.0
16 19:40 10.1 33 3.12 -5.4 15 15 1021.1 0 8.1 18.9 21.2 54.7 35.1 115.7
16 19:30 10.2 32 3.05 -5.7 13 15 1020.5 0 7.9 18.8 21.0 53.9 34.3 112.8
16 19:20 10.7 30 2.95 -6.1 13 13 1021 0 7.7 18.5 20.5 52.8 33.0 108.3
16 19:10 11.3 30 3.06 -5.6 13 13 1021 0 7.9 18.6 20.7 53.3 33.9 111.7
16 19:00 11.7 29 3.03 -5.7 13 15 1020.3 0 7.9 18.4 20.5 52.8 33.4 109.9
16 18:50 12.3 28 3.04 -5.7 13 13 1020.7 0 7.9 18.3 20.4 52.5 33.3 109.6
16 18:40 13.1 28 3.2 -5 15 17 1020.7 0 8.2 18.4 20.7 53.4 34.7 114.6
16 18:30 13.5 27 3.16 -5.1 15 17 1020.1 0 8.1 18.2 20.5 52.7 34.1 112.5
16 18:20 14.6 26 3.25 -4.7 17 19 1020.6 0 8.2 18.2 20.5 52.8 34.6 114.4
16 18:10 15.2 25 3.24 -4.7 17 19 1020.6 0 8.2 18.0 20.4 52.4 34.2 113.2
16 18:00 15.6 24 3.19 -4.9 19 24 1020.1 0 8.1 17.9 20.1 51.7 33.5 110.8
16 17:50 16.3 23 3.19 -4.8 17 22 1020.7 0 8.1 17.8 19.9 51.3 33.3 109.9
16 17:40 16.7 21 2.98 -5.7 17 20 1020.6 0 7.6 17.4 19.2 49.3 31.0 101.8
16 17:30 17.1 20 2.91 -6 19 24 1020.2 0 7.5 17.3 18.9 48.4 30.1 98.8
16 17:20 17.5 19 2.83 -6.3 20 24 1020.7 0 7.3 17.1 18.6 47.6 29.2 95.6
16 17:10 17.8 20 3.04 -5.4 19 20 1020.7 0 7.7 17.3 19.1 49.1 31.2 102.6
16 17:00 17.9 20 3.05 -5.3 17 22 1020.2 0 7.7 17.3 19.1 49.1 31.2 102.8
16 16:50 18.2 20 3.11 -5.1 20 20 1020.8 0 7.9 17.3 19.3 49.5 31.7 104.6
16 16:40 18.3 19 2.97 -5.7 20 22 1020.8 0 7.6 17.1 18.8 48.3 30.3 99.6
16 16:30 18.6 20 3.18 -4.8 15 22 1020.4 0 8.0 17.3 19.4 49.8 32.2 106.6
16 16:20 18.9 19 3.08 -5.2 13 17 1020.9 0 7.8 17.2 19.0 48.8 31.2 102.7
16 16:10 18.5 20 3.16 -4.9 17 20 1020.9 0 8.0 17.3 19.3 49.7 32.1 106.1
16 16:00 18.5 20 3.16 -4.9 13 20 1020.4 0 8.0 17.3 19.3 49.7 32.1 106.0
16 15:50 18.7 19 3.04 -5.4 17 20 1021 0 7.7 17.2 18.9 48.6 30.8 101.6
16 15:40 18.5 17 2.69 -7 11 13 1021.1 0 7.0 16.8 17.9 45.9 27.4 89.6
16 15:30 18.7 18 2.88 -6.1 11 17 1020.7 0 7.4 16.9 18.5 47.3 29.2 96.0
16 15:20 18.7 18 2.88 -6.1 13 15 1021.3 0 7.4 17.0 18.5 47.4 29.3 96.0
16 15:10 18.4 18 2.83 -6.3 11 15 1021.3 0 7.3 17.0 18.4 47.1 28.9 94.6
16 15:00 18.4 19 2.99 -5.6 11 19 1020.9 0 7.6 17.1 18.9 48.4 30.4 100.2
16 14:50 17.8 19 2.88 -6.1 9 9 1021.6 0 7.4 17.1 18.7 47.9 29.6 97.1
16 14:40 18.7 18 2.88 -6.1 13 19 1021.6 0 7.4 17.0 18.5 47.4 29.3 96.0
16 14:30 18.1 18 2.78 -6.6 15 22 1021.3 0 7.2 17.0 18.3 46.9 28.5 93.2
16 14:20 18 19 2.92 -5.9 17 20 1021.9 0 7.5 17.2 18.8 48.1 29.9 98.3
16 14:10 17.5 20 2.98 -5.7 9 11 1022 0 7.6 17.3 19.1 48.9 30.7 101.0
16 14:00 17.6 20 3 -5.6 13 20 1021.6 0 7.7 17.3 19.1 49.0 30.9 101.5
16 13:50 17.5 21 3.13 -5 19 20 1022.3 0 7.9 17.5 19.5 50.1 32.2 106.4
16 13:40 16.9 22 3.16 -4.9 9 13 1022.4 0 8.0 17.7 19.8 50.8 32.8 108.2
16 13:30 17.5 22 3.28 -4.4 15 22 1022 0 8.2 17.7 20.0 51.4 33.8 111.7
16 13:20 16.6 23 3.25 -4.6 13 13 1022.7 0 8.2 17.9 20.1 51.7 33.8 111.9
16 13:10 16.6 23 3.25 -4.6 9 17 1022.9 0 8.2 17.9 20.1 51.7 33.8 111.9
16 13:00 16.5 22 3.09 -5.3 13 20 1022.6 0 7.9 17.7 19.6 50.4 32.2 106.2
16 12:50 17 24 3.47 -3.7 15 20 1023.3 0 8.6 18.1 20.7 53.3 36.0 119.5
16 12:40 16.3 22 3.05 -5.4 17 19 1023.4 0 7.8 17.7 19.6 50.3 31.9 105.1
16 12:30 15.8 24 3.23 -4.7 15 24 1023.1 0 8.2 18.0 20.3 52.1 34.0 112.3
16 12:20 15.6 28 3.72 -2.8 11 15 1023.7 0 9.2 18.7 21.9 56.4 39.2 130.9
16 12:10 15.1 27 3.48 -3.7 7 9 1024 0 8.7 18.5 21.3 54.7 36.9 122.7
16 12:00 15.6 28 3.72 -2.8 11 20 1023.8 0 9.2 18.7 21.9 56.4 39.3 130.9
16 11:50 14.7 30 3.78 -2.7 15 17 1024.4 0 9.4 19.0 22.3 57.6 40.4 134.7
16 11:40 15.1 30 3.87 -2.3 13 15 1024.7 0 9.5 19.0 22.5 58.1 41.1 137.5
16 11:30 14.6 31 3.88 -2.3 13 20 1024.2 0 9.6 19.1 22.7 58.5 41.5 138.7
16 11:20 14 31 3.74 -2.8 11 15 1024.9 0 9.3 19.1 22.4 57.8 40.3 134.3
16 11:10 14 31 3.74 -2.8 11 13 1025 0 9.3 19.1 22.4 57.8 40.3 134.4
16 11:00 13.6 33 3.88 -2.3 13 19 1024.5 0 9.6 19.3 23.0 59.3 42.0 140.4
16 10:50 13 35 3.97 -2.1 13 13 1025 0 9.8 19.6 23.5 60.6 43.3 145.0
16 10:40 12.6 36 3.98 -2.1 15 17 1025 0 9.8 19.7 23.6 61.0 43.7 146.1
16 10:30 12.8 36 4.03 -1.9 15 20 1024.5 0 9.9 19.7 23.7 61.2 44.1 147.6
16 10:20 12.6 37 4.09 -1.7 15 19 1025 0 10.1 19.8 24.0 62.0 44.9 150.5
16 10:10 12.2 38 4.1 -1.7 19 20 1025 0 10.1 19.9 24.1 62.3 45.2 151.6
16 10:00 12.1 39 4.18 -1.4 15 20 1024.5 0 10.3 20.1 24.4 63.1 46.2 154.9
16 09:50 11.8 40 4.21 -1.3 17 20 1025.1 0 10.3 20.2 24.6 63.7 46.7 156.8
16 09:40 11.5 41 4.24 -1.3 17 19 1025.1 0 10.4 20.3 24.8 64.2 47.3 158.6
16 09:30 11.3 42 4.28 -1.1 15 17 1024.4 0 10.5 20.4 25.0 64.7 47.8 160.5
16 09:20 11.1 43 4.33 -1 17 20 1024.8 0 10.6 20.5 25.2 65.3 48.5 163.0

Last Refresh: 17-Jul-2020 02:02:55

Most of the information presented on this site is sourced from the Bureau of Meteorology.  Copyright in all material sourced from the Bureau of Meteorology resides with the Commonwealth of Australia.